Time;durP1;ratioP1;P1;durP2;ratioP2;P2;SDS_P1;SDS_P2;PMS_P1;PMS_P2;Temp;Humidity;BMP_temperature;BMP_pressure;BME280_temperature;BME280_humidity;BME280_pressure;Samples;Min_cycle;Max_cycle;Signal;HPM_P1;HPM_P2
2021/07/18 00:01:08;;;;;;;25.60;6.93;;;15.90;99.90;;;;;;5013715;28;20037;-82
2021/07/18 00:03:33;;;;;;;18.40;5.82;;;16.00;99.90;;;;;;4998263;28;20022;-81
2021/07/18 00:05:59;;;;;;;19.83;7.25;;;16.10;99.90;;;;;;4994122;28;20031;-81
2021/07/18 00:08:24;;;;;;;22.52;6.28;;;16.10;99.90;;;;;;4994174;28;20029;-81
2021/07/18 00:10:51;;;;;;;16.23;6.43;;;16.30;99.90;;;;;;4994058;28;20030;-80
2021/07/18 00:13:19;;;;;;;16.20;6.53;;;16.30;99.90;;;;;;4996296;28;20057;-81
2021/07/18 00:15:45;;;;;;;15.30;6.30;;;16.40;99.90;;;;;;4993922;28;20026;-82
2021/07/18 00:18:10;;;;;;;20.55;6.05;;;16.50;99.90;;;;;;4993921;28;20027;-82
2021/07/18 00:20:36;;;;;;;10.43;4.55;;;16.60;99.90;;;;;;4993823;28;20057;-82
2021/07/18 00:23:02;;;;;;;13.07;5.15;;;16.70;99.90;;;;;;4998589;28;20030;-80
2021/07/18 00:25:27;;;;;;;12.63;4.63;;;16.70;99.90;;;;;;5013198;28;20062;-81
2021/07/18 00:27:53;;;;;;;17.08;4.68;;;16.80;99.90;;;;;;5013325;28;20049;-81
2021/07/18 00:30:19;;;;;;;13.23;4.53;;;16.90;99.90;;;;;;5013323;28;20025;-82
2021/07/18 00:32:44;;;;;;;9.20;4.43;;;17.00;99.90;;;;;;5012640;28;20026;-81
2021/07/18 00:35:11;;;;;;;13.50;6.00;;;17.00;99.90;;;;;;5008763;28;20038;-82
2021/07/18 00:37:36;;;;;;;12.23;5.00;;;17.00;99.90;;;;;;4993504;28;20057;-82
2021/07/18 00:40:05;;;;;;;12.15;4.47;;;17.00;99.90;;;;;;4993423;28;20069;-82
2021/07/18 00:42:31;;;;;;;14.27;4.68;;;17.00;99.90;;;;;;4993202;28;20022;-82
2021/07/18 00:44:56;;;;;;;16.63;4.50;;;16.90;99.90;;;;;;5008234;28;20033;-81
2021/07/18 00:47:23;;;;;;;14.68;5.30;;;16.90;99.90;;;;;;5013022;28;20479;-81
2021/07/18 00:49:49;;;;;;;17.92;4.88;;;16.80;99.90;;;;;;5012758;28;20065;-82
2021/07/18 00:52:14;;;;;;;11.93;4.03;;;16.80;99.90;;;;;;5011444;28;20022;-82
2021/07/18 00:54:41;;;;;;;17.10;5.38;;;16.80;99.90;;;;;;5002349;28;20041;-81
2021/07/18 00:57:07;;;;;;;9.77;5.15;;;16.70;99.90;;;;;;4993241;28;20034;-82
2021/07/18 00:59:35;;;;;;;11.32;4.65;;;16.70;99.90;;;;;;4993058;28;20022;-82
2021/07/18 01:02:00;;;;;;;15.50;4.82;;;16.60;99.90;;;;;;4992822;28;20034;-82
2021/07/18 01:04:27;;;;;;;10.85;4.85;;;16.60;99.90;;;;;;4994199;28;20499;-82
2021/07/18 01:06:53;;;;;;;15.45;5.22;;;16.50;99.90;;;;;;4992947;28;20054;-81
2021/07/18 01:09:19;;;;;;;19.83;5.13;;;16.40;99.90;;;;;;4993022;28;20034;-81
2021/07/18 01:11:45;;;;;;;9.90;4.60;;;16.40;99.90;;;;;;4992751;28;20037;-81
2021/07/18 01:14:10;;;;;;;14.30;5.80;;;16.40;99.90;;;;;;4993044;28;20105;-81
2021/07/18 01:16:37;;;;;;;11.77;5.03;;;16.30;99.90;;;;;;5027606;28;20454;-82
2021/07/18 01:19:03;;;;;;;9.63;5.15;;;16.30;99.90;;;;;;5012485;28;20034;-81
2021/07/18 01:21:30;;;;;;;19.92;6.32;;;16.20;99.90;;;;;;5011937;28;20033;-81
2021/07/18 01:23:56;;;;;;;19.58;5.57;;;16.30;99.90;;;;;;5012534;28;20025;-81
2021/07/18 01:26:21;;;;;;;16.17;6.07;;;16.20;99.90;;;;;;5011867;28;20122;-82
2021/07/18 01:28:48;;;;;;;16.88;6.22;;;16.20;99.90;;;;;;4992796;28;20050;-82
2021/07/18 01:31:13;;;;;;;16.00;5.93;;;16.10;99.90;;;;;;4992598;28;20069;-82
2021/07/18 01:33:39;;;;;;;13.55;5.25;;;16.10;99.90;;;;;;4992580;28;20448;-81
2021/07/18 01:36:05;;;;;;;21.75;6.10;;;16.00;99.90;;;;;;4993515;28;20125;-81
2021/07/18 01:38:31;;;;;;;20.63;6.30;;;16.10;99.90;;;;;;5007643;28;20129;-81
2021/07/18 01:40:56;;;;;;;15.90;6.88;;;16.00;99.90;;;;;;4992463;28;20037;-81
2021/07/18 01:43:22;;;;;;;20.75;6.22;;;15.90;99.90;;;;;;4992361;28;20037;-81
2021/07/18 01:45:48;;;;;;;10.95;5.38;;;15.90;99.90;;;;;;5004663;28;20584;-81
2021/07/18 01:48:14;;;;;;;20.98;6.32;;;15.90;99.90;;;;;;5012149;28;20033;-81
2021/07/18 01:50:40;;;;;;;24.98;5.68;;;15.80;99.90;;;;;;5011928;28;20029;-81
2021/07/18 01:53:06;;;;;;;23.55;7.60;;;15.90;99.90;;;;;;5026944;28;20616;-81
2021/07/18 01:55:33;;;;;;;15.90;5.88;;;15.90;99.90;;;;;;5009985;28;20036;-81
2021/07/18 01:57:58;;;;;;;21.15;8.25;;;15.90;99.90;;;;;;5027194;28;20406;-81
2021/07/18 02:00:25;;;;;;;21.63;6.15;;;15.90;99.90;;;;;;5011888;28;20030;-81
2021/07/18 02:02:52;;;;;;;26.95;8.23;;;15.90;99.90;;;;;;5028834;28;20022;-81
2021/07/18 02:05:19;;;;;;;27.15;7.80;;;15.90;99.90;;;;;;5012695;28;20084;-81
2021/07/18 02:07:49;;;;;;;18.08;7.00;;;16.00;99.90;;;;;;4996373;28;20014;-81
2021/07/18 02:10:17;;;;;;;13.63;7.53;;;16.00;99.90;;;;;;4996221;28;20514;-81
2021/07/18 02:12:45;;;;;;;24.13;6.85;;;16.00;99.90;;;;;;4996060;28;20022;-82
2021/07/18 02:15:12;;;;;;;19.13;8.38;;;16.10;99.90;;;;;;4996119;28;20030;-81
2021/07/18 02:17:38;;;;;;;22.67;6.60;;;16.00;99.90;;;;;;5014750;28;20033;-81
2021/07/18 02:20:09;;;;;;;19.35;6.82;;;16.10;99.90;;;;;;5029954;28;20034;-81
2021/07/18 02:22:47;;;;;;;26.45;7.53;;;15.90;99.90;;;;;;5015302;28;20041;-82
2021/07/18 02:25:14;;;;;;;22.15;6.68;;;15.90;99.90;;;;;;5015592;28;20026;-81
2021/07/18 02:27:40;;;;;;;19.25;6.28;;;15.90;99.90;;;;;;5011783;28;20113;-81
2021/07/18 02:30:08;;;;;;;20.63;6.47;;;15.90;99.90;;;;;;5015477;28;20071;-82
2021/07/18 02:32:34;;;;;;;18.00;6.13;;;15.80;99.90;;;;;;5015118;28;20017;-82
2021/07/18 02:35:01;;;;;;;25.30;6.93;;;15.80;99.90;;;;;;5015343;28;20101;-81
2021/07/18 02:37:26;;;;;;;20.10;7.13;;;15.80;99.90;;;;;;5018581;28;20030;-81
2021/07/18 02:39:52;;;;;;;27.90;6.65;;;15.80;99.90;;;;;;4995660;28;20037;-81
2021/07/18 02:42:17;;;;;;;21.48;7.05;;;15.80;99.90;;;;;;4995557;28;20038;-81
2021/07/18 02:44:43;;;;;;;27.90;6.80;;;15.70;99.90;;;;;;4995641;28;20049;-81
2021/07/18 02:47:08;;;;;;;20.58;7.22;;;15.70;99.90;;;;;;5001692;28;20494;-81
2021/07/18 02:49:34;;;;;;;16.38;6.07;;;15.60;99.90;;;;;;5030427;28;20026;-81
2021/07/18 02:51:59;;;;;;;26.40;7.97;;;15.60;99.90;;;;;;5014907;28;20430;-81
2021/07/18 02:54:25;;;;;;;21.77;6.97;;;15.50;99.90;;;;;;5015004;28;20054;-81
2021/07/18 02:56:50;;;;;;;23.00;6.68;;;15.70;99.90;;;;;;5013592;28;20029;-81
2021/07/18 02:59:16;;;;;;;22.23;8.13;;;15.60;99.90;;;;;;4995368;28;20030;-81
2021/07/18 03:01:41;;;;;;;25.27;7.47;;;15.40;99.90;;;;;;4995075;28;20022;-81
2021/07/18 03:04:07;;;;;;;17.83;7.30;;;15.40;99.90;;;;;;4995412;28;20022;-81
2021/07/18 03:06:32;;;;;;;17.20;7.60;;;15.40;99.90;;;;;;4995302;28;20037;-81
2021/07/18 03:08:58;;;;;;;28.48;8.23;;;15.40;99.90;;;;;;5010634;28;20033;-81
2021/07/18 03:11:23;;;;;;;18.00;7.72;;;15.30;99.90;;;;;;5014579;28;20394;-81
2021/07/18 03:13:49;;;;;;;31.88;8.90;;;15.30;99.90;;;;;;5013303;28;20478;-82
2021/07/18 03:16:14;;;;;;;25.83;8.25;;;15.40;99.90;;;;;;5014615;28;20595;-81
2021/07/18 03:18:40;;;;;;;33.70;8.95;;;15.30;99.90;;;;;;5028216;28;20032;-81
2021/07/18 03:21:05;;;;;;;23.75;9.50;;;15.30;99.90;;;;;;5029593;28;20038;-80
2021/07/18 03:23:31;;;;;;;27.27;8.48;;;15.30;99.90;;;;;;5014466;28;20030;-81
2021/07/18 03:25:56;;;;;;;37.63;10.23;;;15.30;99.90;;;;;;5014601;28;20529;-81
2021/07/18 03:28:23;;;;;;;40.00;9.93;;;15.30;99.90;;;;;;5009100;28;20058;-81
2021/07/18 03:30:49;;;;;;;26.00;8.27;;;15.30;99.90;;;;;;4994810;28;20030;-81
2021/07/18 03:33:14;;;;;;;39.38;9.60;;;15.30;99.90;;;;;;4994597;28;20437;-81
2021/07/18 03:35:40;;;;;;;30.45;9.13;;;15.40;99.90;;;;;;4994755;28;20117;-81
2021/07/18 03:38:05;;;;;;;28.02;9.05;;;15.30;99.90;;;;;;4994695;28;20106;-81
2021/07/18 03:40:31;;;;;;;26.98;10.65;;;15.40;99.90;;;;;;5014064;28;20626;-81
2021/07/18 03:42:56;;;;;;;31.73;10.35;;;15.40;99.90;;;;;;5029207;28;20072;-81
2021/07/18 03:45:22;;;;;;;37.45;10.20;;;15.40;99.90;;;;;;5013978;28;20030;-81
2021/07/18 03:47:47;;;;;;;21.98;9.82;;;15.20;99.90;;;;;;5014179;28;20392;-81
2021/07/18 03:50:14;;;;;;;25.20;9.52;;;15.40;99.90;;;;;;5014479;28;20117;-81
2021/07/18 03:52:40;;;;;;;29.60;10.45;;;15.40;99.90;;;;;;4994277;28;20105;-81
2021/07/18 03:55:06;;;;;;;44.72;11.50;;;15.40;99.90;;;;;;4994352;28;20559;-81
2021/07/18 03:57:31;;;;;;;43.70;11.07;;;15.40;99.90;;;;;;4994380;28;20037;-81
2021/07/18 03:59:57;;;;;;;31.02;10.13;;;15.50;99.90;;;;;;5003291;28;20490;-81
2021/07/18 04:02:23;;;;;;;34.78;10.45;;;15.50;99.90;;;;;;5012324;28;20022;-81
2021/07/18 04:04:48;;;;;;;39.58;10.50;;;15.50;99.90;;;;;;5013723;28;20025;-81
2021/07/18 04:07:14;;;;;;;31.30;10.13;;;15.50;99.90;;;;;;5013804;28;20033;-81
2021/07/18 04:09:39;;;;;;;33.13;10.13;;;15.60;99.90;;;;;;5009300;28;20376;-81
2021/07/18 04:12:05;;;;;;;25.45;10.02;;;15.50;99.90;;;;;;4993867;28;20113;-81
2021/07/18 04:14:33;;;;;;;38.17;11.15;;;15.60;99.90;;;;;;4993829;28;20042;-81
2021/07/18 04:16:59;;;;;;;48.38;11.35;;;15.60;99.90;;;;;;4994009;28;20379;-81
2021/07/18 04:19:24;;;;;;;29.77;9.38;;;15.60;99.90;;;;;;4993883;28;20038;-81
2021/07/18 04:21:50;;;;;;;45.13;11.70;;;15.70;99.90;;;;;;5009903;28;20033;-81
2021/07/18 04:24:15;;;;;;;41.08;11.05;;;15.70;99.90;;;;;;5013459;28;20025;-81
2021/07/18 04:26:41;;;;;;;36.90;10.55;;;15.80;99.90;;;;;;5012837;28;20022;-82
2021/07/18 04:29:06;;;;;;;29.65;10.18;;;15.80;99.90;;;;;;5013242;28;20032;-82
2021/07/18 04:31:32;;;;;;;32.47;11.07;;;15.90;99.90;;;;;;5010062;28;20117;-81
2021/07/18 04:33:57;;;;;;;23.90;10.38;;;15.90;99.90;;;;;;4995383;28;20492;-81
2021/07/18 04:36:23;;;;;;;30.48;10.43;;;16.00;99.90;;;;;;4993630;28;20026;-81
2021/07/18 04:38:48;;;;;;;26.98;9.55;;;16.00;99.90;;;;;;4993574;28;20459;-82
2021/07/18 04:41:14;;;;;;;30.70;10.48;;;16.10;99.90;;;;;;5001453;28;20116;-81
2021/07/18 04:43:39;;;;;;;35.38;10.27;;;16.20;99.90;;;;;;5012917;28;20022;-81
2021/07/18 04:46:07;;;;;;;34.45;9.48;;;16.20;99.90;;;;;;5012932;28;20033;-82
2021/07/18 04:48:32;;;;;;;31.65;10.32;;;16.20;99.90;;;;;;5013015;28;20017;-81
2021/07/18 04:50:58;;;;;;;35.08;10.60;;;16.20;99.90;;;;;;5024541;28;20530;-81
2021/07/18 04:53:24;;;;;;;37.05;11.85;;;16.40;99.90;;;;;;4993180;28;20041;-81
2021/07/18 04:55:49;;;;;;;33.92;9.70;;;16.40;99.90;;;;;;4993162;28;20026;-82
2021/07/18 04:58:15;;;;;;;39.10;10.70;;;16.40;99.90;;;;;;4993162;28;20038;-81
2021/07/18 05:00:40;;;;;;;29.30;9.60;;;16.50;99.90;;;;;;4993187;28;20030;-81
2021/07/18 05:03:06;;;;;;;34.30;10.70;;;16.60;99.90;;;;;;5010431;28;20022;-81
2021/07/18 05:05:31;;;;;;;39.92;10.45;;;16.60;99.90;;;;;;5012659;28;20104;-81
2021/07/18 05:08:00;;;;;;;32.05;9.02;;;16.70;99.90;;;;;;5012729;28;20079;-81
2021/07/18 05:10:27;;;;;;;48.60;8.88;;;16.80;99.90;;;;;;5011380;28;20395;-82
2021/07/18 05:12:54;;;;;;;37.38;8.73;;;16.90;99.90;;;;;;5010761;28;20486;-81
2021/07/18 05:15:21;;;;;;;35.63;8.98;;;17.10;99.90;;;;;;5012447;28;20033;-81
2021/07/18 05:17:47;;;;;;;39.50;9.75;;;17.20;99.90;;;;;;5012518;28;20030;-82
2021/07/18 05:20:16;;;;;;;26.60;7.88;;;17.20;99.90;;;;;;5012354;28;20029;-81
2021/07/18 05:22:42;;;;;;;29.00;7.10;;;17.50;99.90;;;;;;5003130;28;20026;-81
2021/07/18 05:25:10;;;;;;;41.78;9.52;;;17.50;99.90;;;;;;4992756;28;20541;-81
2021/07/18 05:27:36;;;;;;;37.70;6.95;;;17.60;99.90;;;;;;5007876;28;20024;-81
2021/07/18 05:30:05;;;;;;;31.42;8.80;;;17.70;99.90;;;;;;4992834;28;20026;-81
2021/07/18 05:32:31;;;;;;;33.90;9.70;;;17.80;99.90;;;;;;4992658;28;20406;-81
2021/07/18 05:34:56;;;;;;;37.55;8.27;;;17.80;99.90;;;;;;5007716;28;20109;-81
2021/07/18 05:37:22;;;;;;;41.97;7.78;;;17.90;99.90;;;;;;4991870;28;20061;-82
2021/07/18 05:39:47;;;;;;;29.20;6.68;;;17.90;99.90;;;;;;4992511;28;20423;-81
2021/07/18 05:42:13;;;;;;;24.02;6.75;;;18.00;99.90;;;;;;4992346;28;20651;-82
2021/07/18 05:44:38;;;;;;;29.85;7.60;;;18.00;99.90;;;;;;4994806;28;20515;-81
2021/07/18 05:47:04;;;;;;;27.17;7.18;;;18.10;99.90;;;;;;4992584;28;20026;-81
2021/07/18 05:49:30;;;;;;;28.73;6.63;;;18.10;99.90;;;;;;4992557;28;20025;-81
2021/07/18 05:51:55;;;;;;;23.92;6.07;;;18.20;99.90;;;;;;4992262;28;20030;-81
2021/07/18 05:54:21;;;;;;;27.85;6.95;;;18.40;99.90;;;;;;5005759;28;20033;-81
2021/07/18 05:56:47;;;;;;;24.92;6.40;;;18.40;99.90;;;;;;5012038;28;20108;-81
2021/07/18 05:59:12;;;;;;;24.88;5.88;;;18.50;99.90;;;;;;5011992;28;20045;-81
2021/07/18 06:01:38;;;;;;;18.27;6.18;;;18.50;99.90;;;;;;5009817;28;20053;-80
2021/07/18 06:04:03;;;;;;;25.38;5.65;;;18.70;99.90;;;;;;5002932;28;20038;-81
2021/07/18 06:06:29;;;;;;;32.30;7.32;;;18.60;99.90;;;;;;4992063;28;20041;-81
2021/07/18 06:08:54;;;;;;;21.90;4.50;;;18.80;99.90;;;;;;4992047;28;20026;-80
2021/07/18 06:11:22;;;;;;;18.92;5.32;;;19.00;99.90;;;;;;4991866;28;20093;-81
2021/07/18 06:13:48;;;;;;;20.10;4.63;;;19.00;99.90;;;;;;4995623;28;20052;-82
2021/07/18 06:16:14;;;;;;;24.23;5.32;;;19.20;99.90;;;;;;5011565;28;20033;-80
2021/07/18 06:18:39;;;;;;;18.30;4.90;;;19.30;99.90;;;;;;5011685;28;20507;-81
2021/07/18 06:21:05;;;;;;;13.60;4.25;;;19.60;99.90;;;;;;5011477;28;20053;-81
2021/07/18 06:23:30;;;;;;;17.63;5.18;;;19.80;99.90;;;;;;5026760;28;20113;-81
2021/07/18 06:25:56;;;;;;;18.75;5.80;;;20.00;99.90;;;;;;4993092;28;20057;-81
2021/07/18 06:28:21;;;;;;;16.48;4.63;;;20.00;99.90;;;;;;5007026;28;20027;-82
2021/07/18 06:30:47;;;;;;;19.05;3.97;;;20.00;99.90;;;;;;4992003;28;20022;-83
2021/07/18 06:33:12;;;;;;;22.25;4.70;;;20.30;99.90;;;;;;4991745;28;20030;-82
2021/07/18 06:35:39;;;;;;;12.23;3.53;;;20.20;99.90;;;;;;5004764;28;20164;-82
2021/07/18 06:38:04;;;;;;;15.18;3.88;;;19.90;99.90;;;;;;5011522;28;20053;-79
2021/07/18 06:40:31;;;;;;;11.40;3.47;;;19.80;99.90;;;;;;5011317;28;20066;-82
2021/07/18 06:42:56;;;;;;;14.48;3.58;;;19.60;99.90;;;;;;5011432;28;20022;-82
2021/07/18 06:45:22;;;;;;;10.35;3.78;;;19.50;99.90;;;;;;5003401;28;20080;-82
2021/07/18 06:47:47;;;;;;;13.80;2.90;;;19.40;99.90;;;;;;4992054;28;20026;-80
2021/07/18 06:50:14;;;;;;;13.82;3.13;;;19.40;99.90;;;;;;4995609;28;20479;-79
2021/07/18 06:52:40;;;;;;;13.80;3.53;;;19.20;99.90;;;;;;5010303;28;20514;-81
2021/07/18 06:55:06;;;;;;;11.57;2.58;;;19.30;99.90;;;;;;4997983;28;20045;-80
2021/07/18 06:57:32;;;;;;;16.75;3.67;;;19.40;99.90;;;;;;5030123;28;20034;-80
2021/07/18 06:59:57;;;;;;;4.88;2.60;;;19.50;99.90;;;;;;5014880;28;20060;-81
2021/07/18 07:02:23;;;;;;;10.25;2.92;;;19.50;99.90;;;;;;5015090;28;20431;-82
2021/07/18 07:04:49;;;;;;;7.55;2.67;;;19.70;99.90;;;;;;5014809;28;20064;-81
2021/07/18 07:07:14;;;;;;;7.20;2.20;;;20.00;99.90;;;;;;5012273;28;20088;-80
2021/07/18 07:09:40;;;;;;;8.52;2.35;;;20.10;99.90;;;;;;4995033;28;20031;-81
2021/07/18 07:12:06;;;;;;;9.43;2.40;;;20.00;99.90;;;;;;4995033;28;20031;-80
2021/07/18 07:14:31;;;;;;;10.23;2.20;;;20.10;99.90;;;;;;4994952;28;20490;-81
2021/07/18 07:16:57;;;;;;;10.48;2.85;;;20.30;99.90;;;;;;4995674;28;20105;-79
2021/07/18 07:19:22;;;;;;;11.35;2.85;;;20.70;99.90;;;;;;5004179;28;20152;-79
2021/07/18 07:21:48;;;;;;;10.95;3.42;;;20.80;99.90;;;;;;4998110;28;20064;-81
2021/07/18 07:24:15;;;;;;;6.55;2.60;;;20.90;99.90;;;;;;5012784;28;20033;-81
2021/07/18 07:26:41;;;;;;;4.47;2.30;;;21.00;99.90;;;;;;5012945;28;20577;-80
2021/07/18 07:29:06;;;;;;;7.55;2.53;;;21.10;99.90;;;;;;5021073;28;20133;-82
2021/07/18 07:31:32;;;;;;;14.80;3.13;;;21.20;99.90;;;;;;5019715;28;20025;-78
2021/07/18 07:33:57;;;;;;;10.07;2.63;;;21.10;99.90;;;;;;5023157;28;20022;-80
2021/07/18 07:36:23;;;;;;;12.45;2.33;;;20.70;99.90;;;;;;5013271;28;20076;-82
2021/07/18 07:38:49;;;;;;;12.98;3.42;;;20.50;99.90;;;;;;5014134;28;20038;-82
2021/07/18 07:41:14;;;;;;;10.20;2.95;;;20.50;99.90;;;;;;5013957;28;20038;-82
2021/07/18 07:43:40;;;;;;;10.70;2.60;;;20.90;99.90;;;;;;5029336;28;20441;-80
2021/07/18 07:46:06;;;;;;;10.98;2.70;;;21.20;99.90;;;;;;5029330;28;20022;-83
2021/07/18 07:48:32;;;;;;;9.70;2.70;;;21.20;99.90;;;;;;4997277;28;20099;-83
2021/07/18 07:50:57;;;;;;;6.55;2.67;;;21.30;99.90;;;;;;4994512;28;20093;-81
2021/07/18 07:53:24;;;;;;;7.40;2.42;;;21.70;99.90;;;;;;4993969;28;20105;-82
2021/07/18 07:55:50;;;;;;;9.95;3.33;;;21.80;99.90;;;;;;4994378;28;20026;-80
2021/07/18 07:58:16;;;;;;;10.48;2.55;;;21.50;99.90;;;;;;5005614;28;20041;-80
2021/07/18 08:00:42;;;;;;;11.80;2.70;;;21.30;99.90;;;;;;5012928;28;20584;-81
2021/07/18 08:03:09;;;;;;;9.32;2.88;;;21.20;99.90;;;;;;5013663;28;20105;-80
2021/07/18 08:05:34;;;;;;;11.70;2.95;;;21.50;99.90;;;;;;5028851;28;20054;-81
2021/07/18 08:08:00;;;;;;;10.15;2.53;;;21.60;99.90;;;;;;5006756;28;20502;-80
2021/07/18 08:10:26;;;;;;;10.05;3.47;;;21.60;99.90;;;;;;4994130;28;20034;-81
2021/07/18 08:12:52;;;;;;;7.82;2.33;;;21.70;99.90;;;;;;4993778;28;20022;-79
2021/07/18 08:15:18;;;;;;;5.47;2.33;;;21.70;99.90;;;;;;4993949;28;20057;-79
2021/07/18 08:17:45;;;;;;;10.05;2.88;;;21.70;99.90;;;;;;5009572;28;20033;-79
2021/07/18 08:20:23;;;;;;;6.97;2.75;;;22.10;99.90;;;;;;5013352;28;20037;-80
2021/07/18 08:22:50;;;;;;;9.35;2.75;;;21.80;99.90;;;;;;5013010;28;20084;-82
2021/07/18 08:25:18;;;;;;;7.15;2.65;;;21.70;99.90;;;;;;5028404;28;20022;-83
2021/07/18 08:27:44;;;;;;;4.07;2.13;;;22.00;99.90;;;;;;5028607;28;20026;-86
2021/07/18 08:30:11;;;;;;;13.13;2.25;;;21.90;99.90;;;;;;4995483;28;20037;-84
2021/07/18 08:32:37;;;;;;;5.25;1.60;;;22.20;99.90;;;;;;4992102;28;20022;-85
2021/07/18 08:35:03;;;;;;;6.53;1.90;;;22.10;99.90;;;;;;4993464;28;20399;-83
2021/07/18 08:37:29;;;;;;;6.45;2.28;;;22.20;99.90;;;;;;4993630;28;20026;-84
2021/07/18 08:39:54;;;;;;;7.18;2.20;;;22.40;99.90;;;;;;5004654;28;20037;-85
2021/07/18 08:42:20;;;;;;;3.33;1.75;;;22.60;99.90;;;;;;5012903;28;20057;-84
2021/07/18 08:44:46;;;;;;;8.73;1.67;;;22.50;99.90;;;;;;5013073;28;20105;-83
2021/07/18 08:47:12;;;;;;;5.07;2.03;;;22.50;99.90;;;;;;5012939;28;20105;-82
2021/07/18 08:49:39;;;;;;;5.43;1.60;;;22.50;99.90;;;;;;4997355;28;20034;-82
2021/07/18 08:52:05;;;;;;;5.40;1.65;;;22.60;99.90;;;;;;4993084;28;20030;-84
2021/07/18 08:54:32;;;;;;;4.40;1.95;;;22.70;99.90;;;;;;4993055;28;20026;-82
2021/07/18 08:57:02;;;;;;;7.35;2.03;;;22.60;99.90;;;;;;4993281;28;20491;-81
2021/07/18 08:59:28;;;;;;;10.43;2.50;;;22.60;99.90;;;;;;5003684;28;20033;-84
2021/07/18 09:01:54;;;;;;;4.93;1.42;;;22.50;99.90;;;;;;5012288;28;20080;-84
2021/07/18 09:04:20;;;;;;;7.32;1.95;;;22.80;99.90;;;;;;5012746;28;20034;-83
2021/07/18 09:06:48;;;;;;;6.13;2.15;;;22.70;99.90;;;;;;5012611;28;20030;-82
2021/07/18 09:09:20;;;;;;;12.10;2.40;;;22.60;99.90;;;;;;5006376;28;20034;-81
2021/07/18 09:12:04;;;;;;;9.15;1.85;;;22.30;99.90;;;;;;4992705;28;20033;-81
2021/07/18 09:14:32;;;;;;;6.28;2.05;;;22.20;99.90;;;;;;4992822;28;20610;-81
2021/07/18 09:16:58;;;;;;;8.43;2.08;;;22.30;99.90;;;;;;4992880;28;20038;-87
2021/07/18 09:19:32;;;;;;;5.85;1.58;;;22.70;99.90;;;;;;4991474;28;20026;-84
2021/07/18 09:22:04;;;;;;;6.93;2.20;;;22.80;99.90;;;;;;4999964;28;20502;-81
2021/07/18 09:24:35;;;;;;;13.27;2.28;;;23.00;99.90;;;;;;5008290;28;20482;-81
2021/07/18 09:27:17;;;;;;;6.65;2.00;;;23.00;99.90;;;;;;5022048;28;20018;-83
2021/07/18 09:30:06;;;;;;;8.65;1.92;;;22.80;99.90;;;;;;5017798;28;20064;-81
2021/07/18 09:32:34;;;;;;;5.95;1.73;;;22.70;99.90;;;;;;5010995;28;20110;-82
2021/07/18 09:35:04;;;;;;;6.05;2.10;;;22.70;99.90;;;;;;5024595;28;20018;-82
2021/07/18 09:37:51;;;;;;;5.97;2.13;;;22.70;99.90;;;;;;5022704;28;20513;-78
2021/07/18 09:40:19;;;;;;;6.75;2.13;;;22.70;99.90;;;;;;5007947;28;20552;-79
2021/07/18 09:42:48;;;;;;;8.27;2.80;;;23.00;99.90;;;;;;5008740;28;20390;-83
2021/07/18 09:45:23;;;;;;;8.57;2.40;;;23.10;99.90;;;;;;5017889;28;20022;-79
2021/07/18 09:47:54;;;;;;;10.23;2.47;;;23.40;99.90;;;;;;5011947;28;20034;-82
2021/07/18 09:50:39;;;;;;;6.53;2.15;;;23.20;99.90;;;;;;5002109;28;20033;-83
2021/07/18 09:53:05;;;;;;;6.25;2.33;;;23.00;99.90;;;;;;5007218;28;20054;-80
2021/07/18 09:55:31;;;;;;;12.30;1.95;;;23.00;99.90;;;;;;5031618;28;20468;-80
2021/07/18 09:57:57;;;;;;;7.15;2.72;;;23.00;99.90;;;;;;5031649;28;20113;-81
2021/07/18 10:00:39;;;;;;;10.15;2.33;;;23.00;99.90;;;;;;5029760;28;20030;-80
2021/07/18 10:03:14;;;;;;;10.87;3.23;;;22.60;99.90;;;;;;5026986;28;20022;-79
2021/07/18 10:05:40;;;;;;;7.43;2.40;;;22.30;99.90;;;;;;5026935;28;20269;-82
2021/07/18 10:08:07;;;;;;;16.33;3.25;;;22.30;99.90;;;;;;5011961;28;20026;-80
2021/07/18 10:10:34;;;;;;;10.15;2.60;;;22.20;99.90;;;;;;5011817;28;20022;-83
2021/07/18 10:13:02;;;;;;;8.40;2.42;;;21.90;99.90;;;;;;5000594;28;20116;-85
2021/07/18 10:15:28;;;;;;;10.05;3.00;;;21.80;99.90;;;;;;5011733;28;20144;-80
2021/07/18 10:17:54;;;;;;;9.27;2.30;;;22.10;99.90;;;;;;5011874;28;20165;-83
2021/07/18 10:20:19;;;;;;;13.40;3.60;;;22.40;99.90;;;;;;5011576;28;20537;-85
2021/07/18 10:22:47;;;;;;;15.77;3.20;;;22.10;99.90;;;;;;4998194;28;20042;-81
2021/07/18 10:25:15;;;;;;;10.20;2.63;;;22.10;99.90;;;;;;4995968;28;20033;-84
2021/07/18 10:27:42;;;;;;;10.30;3.00;;;22.10;99.90;;;;;;4996034;28;20025;-82
2021/07/18 10:30:08;;;;;;;10.90;2.50;;;22.20;99.90;;;;;;4995909;28;20061;-80
2021/07/18 10:32:35;;;;;;;9.90;3.50;;;22.40;99.90;;;;;;5004599;28;20065;-79
2021/07/18 10:35:03;;;;;;;19.65;3.92;;;22.30;99.90;;;;;;5015495;28;20398;-85
2021/07/18 10:37:40;;;;;;;14.60;3.40;;;22.10;99.90;;;;;;5015343;28;20481;-84
2021/07/18 10:40:21;;;;;;;19.45;3.95;;;22.00;99.90;;;;;;5015278;28;20588;-83
2021/07/18 10:42:47;;;;;;;8.88;3.08;;;22.10;99.90;;;;;;5007002;28;20023;-86
2021/07/18 10:45:21;;;;;;;10.45;3.45;;;22.20;99.90;;;;;;4995646;28;20471;-85
2021/07/18 10:48:06;;;;;;;7.10;2.75;;;22.60;99.90;;;;;;4995523;28;20023;-80
2021/07/18 10:50:43;;;;;;;18.92;3.38;;;22.80;99.90;;;;;;4994172;28;20057;-85
2021/07/18 10:53:21;;;;;;;13.98;3.15;;;23.00;99.90;;;;;;5013686;28;20068;-83
2021/07/18 10:55:48;;;;;;;12.40;3.50;;;23.10;99.90;;;;;;5030293;28;20030;-84
2021/07/18 10:58:40;;;;;;;13.10;4.28;;;22.70;99.90;;;;;;5015026;28;20084;-82
2021/07/18 11:01:27;;;;;;;8.63;3.67;;;22.50;99.90;;;;;;5014917;28;20101;-81
2021/07/18 11:03:52;;;;;;;16.55;4.32;;;22.40;99.90;;;;;;5014492;28;20036;-80
2021/07/18 11:06:27;;;;;;;10.15;4.13;;;22.20;99.90;;;;;;5014877;28;20022;-78
2021/07/18 11:09:13;;;;;;;16.23;4.53;;;22.40;99.90;;;;;;5014838;28;20022;-80
2021/07/18 11:11:57;;;;;;;12.60;4.00;;;22.70;99.90;;;;;;5013730;28;20034;-80
2021/07/18 11:14:34;;;;;;;17.42;4.45;;;22.60;99.90;;;;;;4995159;28;20022;-78
2021/07/18 11:17:02;;;;;;;18.58;4.20;;;22.20;99.90;;;;;;4995214;28;20065;-80
2021/07/18 11:19:37;;;;;;;14.57;3.90;;;22.10;99.90;;;;;;4994956;28;20029;-80
2021/07/18 11:22:08;;;;;;;15.05;3.65;;;22.00;99.90;;;;;;4994826;28;20109;-78
2021/07/18 11:24:55;;;;;;;12.10;3.53;;;21.90;99.90;;;;;;5014488;28;20029;-79
2021/07/18 11:27:28;;;;;;;12.57;4.43;;;21.60;99.90;;;;;;5014612;28;20080;-78
2021/07/18 11:29:55;;;;;;;9.85;3.80;;;21.40;99.90;;;;;;5014374;28;20037;-77
2021/07/18 11:32:25;;;;;;;14.00;4.40;;;21.20;99.90;;;;;;5013972;28;20129;-77
2021/07/18 11:34:53;;;;;;;11.07;4.00;;;21.10;99.90;;;;;;4993554;28;20169;-78
2021/07/18 11:37:19;;;;;;;14.07;3.75;;;21.30;99.90;;;;;;4994958;28;20025;-80
2021/07/18 11:39:44;;;;;;;16.23;4.75;;;21.30;99.90;;;;;;5008846;28;20467;-77
2021/07/18 11:42:16;;;;;;;14.25;4.95;;;21.50;99.90;;;;;;5013281;28;20025;-77
2021/07/18 11:44:43;;;;;;;17.67;4.32;;;21.20;99.90;;;;;;5013191;28;20030;-78
2021/07/18 11:47:12;;;;;;;10.63;4.15;;;21.30;99.90;;;;;;5006704;28;20033;-77
2021/07/18 11:49:40;;;;;;;11.40;4.88;;;21.40;99.90;;;;;;4998119;28;20037;-78
2021/07/18 11:52:08;;;;;;;12.77;5.38;;;21.30;99.90;;;;;;4996084;28;20311;-80
2021/07/18 11:54:34;;;;;;;22.75;5.47;;;21.00;99.90;;;;;;5031112;28;20528;-80
2021/07/18 11:57:00;;;;;;;17.95;4.97;;;20.90;99.90;;;;;;5023581;28;20162;-81
2021/07/18 11:59:28;;;;;;;12.98;5.00;;;21.10;99.90;;;;;;5013923;28;20101;-79
2021/07/18 12:01:56;;;;;;;18.13;6.10;;;21.20;99.90;;;;;;5000322;28;20025;-78
2021/07/18 12:04:26;;;;;;;16.25;6.32;;;21.00;99.90;;;;;;4994367;28;20053;-79
2021/07/18 12:07:06;;;;;;;18.70;5.88;;;20.90;99.90;;;;;;4994218;28;20022;-78
2021/07/18 12:09:40;;;;;;;23.75;5.90;;;21.10;99.90;;;;;;4998303;28;20046;-78
2021/07/18 12:12:14;;;;;;;34.67;5.53;;;21.30;99.90;;;;;;5013339;28;20026;-77
2021/07/18 12:14:40;;;;;;;27.30;6.53;;;21.30;99.90;;;;;;5012792;28;20032;-78
2021/07/18 12:17:07;;;;;;;21.25;6.68;;;21.10;99.90;;;;;;5013504;28;20026;-77
2021/07/18 12:19:35;;;;;;;22.50;6.45;;;21.00;99.90;;;;;;5013424;28;20026;-79
2021/07/18 12:22:06;;;;;;;26.85;7.15;;;21.00;99.90;;;;;;5012827;28;20061;-79
2021/07/18 12:24:33;;;;;;;17.75;7.13;;;20.80;99.90;;;;;;4994861;28;20506;-80
2021/07/18 12:27:00;;;;;;;30.48;7.55;;;20.50;99.90;;;;;;4996043;28;20109;-79
2021/07/18 12:29:28;;;;;;;19.65;7.60;;;20.50;99.90;;;;;;5003105;28;20014;-79
2021/07/18 12:31:55;;;;;;;31.80;8.13;;;20.30;99.90;;;;;;4992034;28;20031;-79
2021/07/18 12:34:30;;;;;;;21.70;7.03;;;20.20;99.90;;;;;;4992351;28;20485;-79
2021/07/18 12:36:56;;;;;;;27.70;7.13;;;20.30;99.90;;;;;;5006796;28;20112;-81
2021/07/18 12:39:24;;;;;;;16.98;6.07;;;20.30;99.90;;;;;;5009615;28;20026;-80